Redwood City, CA (94061)

9:45 AM PST on December 28, 2014 (GMT -0800)
Jasper Ridge Biological Preserve | Change Station
CLOSE
Current Station
Personal Weather Station
Location: Woodside, CA
Elevation: 420 ft
Nearby Weather Stations

Elev 420 ft 37.41 °N, 122.24 °W | Updated 13 minutes ago

Clear
Clear
45.7 °F
Feels Like 46 °F
N
0.0
Wind Variable Wind from South
Gusts 2.0 mph

Today
High -- | Low -- °F
--% Chance of Precip.
Yesterday
High -- | Low -- °F
Precip. -- in
7:22 AM 4:58 PM
Waxing Crescent, 50% visible
Pressure 30.35 in
Visibility 10.0 miles
Clouds Scattered Clouds 20000 ft
Windchill 46 °F
Dew Point 42 °F
Humidity 86%
Rainfall 0.00 in
Snow Depth Not available.
UV 1 out of 12
Pollen 5.30 out of 12
Air Quality Not available.
Flu Activity Not available.
METAR KSQL 281652Z 13003KT 10SM SCT200 07/04 A3035

More Conditions Fewer Conditions

Pressure 30.35 in
Visibility 10.0 miles
Clouds Scattered Clouds 20000 ft
Windchill 46 °F
Dew Point 42 °F
Humidity 86%
Rainfall 0.00 in
Snow Depth Not available.
UV 1 out of 12
Pollen 5.30 out of 12
Air Quality Not available.
Flu Activity Not available.
METAR KSQL 281652Z 13003KT 10SM SCT200 07/04 A3035

More Conditions Fewer Conditions

10-Day Weather Forecast

Almanac

Astronomy

Dec. 28, 2014 Rise Set
Actual Time
Civil Twilight
Nautical Twilight
Astronomical Twilight
Moon
Length of Visible Light
Length of Day
Tomorrow will be .
, % of the Moon is Illuminated

Today's Extremes

State Highs State Lows

Community

WunderPhotos

Upload Photos

1,781,367 photos uploaded!

WunderBlogs® & News

Nearby

Air Quality

  Air Quality AQ Index Pollutant
Not available.

Snow Depth

Station Depth Elevation

Earthquake Activity

City Distance Mag. Time & Date
Minimum magnitude displayed is 2.5.

Coastal Water Temperatures

Place Temperature

Nearby Weather Stations